Time;durP1;ratioP1;P1;durP2;ratioP2;P2;SDS_P1;SDS_P2;PMS_P1;PMS_P2;Temp;Humidity;BMP_temperature;BMP_pressure;BME280_temperature;BME280_humidity;BME280_pressure;Samples;Min_cycle;Max_cycle;Signal;HPM_P1;HPM_P2
2021/06/06 00:01:58;;;;;;;0.10;0.10;;;;;;;-139.38;100.00;63230.50;5060308;28;20203;-75
2021/06/06 00:05:25;;;;;;;0.10;0.10;;;;;;;-139.38;100.00;63230.50;5064980;28;20231;-75
2021/06/06 00:08:51;;;;;;;0.10;0.10;;;;;;;-139.38;100.00;63230.50;5068497;28;20621;-75
2021/06/06 00:12:19;;;;;;;0.77;0.77;;;;;;;-139.38;100.00;63230.50;5070816;28;20212;-75
2021/06/06 00:15:46;;;;;;;0.10;0.10;;;;;;;-139.38;100.00;63230.50;5069500;28;20201;-75
2021/06/06 00:19:12;;;;;;;0.10;0.10;;;;;;;-139.38;100.00;63230.50;5068100;28;20666;-75
2021/06/06 00:22:38;;;;;;;0.10;0.10;;;;;;;-139.38;100.00;63230.50;5067758;28;20289;-75
2021/06/06 00:26:04;;;;;;;0.20;0.20;;;;;;;-139.38;100.00;63230.50;5065629;28;20283;-74
2021/06/06 00:29:29;;;;;;;0.10;0.10;;;;;;;-139.38;100.00;63230.50;5063933;28;20609;-75
2021/06/06 00:32:56;;;;;;;0.10;0.10;;;;;;;-139.38;100.00;63230.50;5071346;28;20202;-75
2021/06/06 00:36:22;;;;;;;0.10;0.10;;;;;;;-139.38;100.00;63230.50;5065028;28;20226;-75
2021/06/06 00:39:48;;;;;;;0.10;0.10;;;;;;;-139.38;100.00;63230.50;5065031;28;20201;-74
2021/06/06 00:43:15;;;;;;;0.10;0.10;;;;;;;-139.38;100.00;63230.50;5065513;28;20210;-75
2021/06/06 00:46:41;;;;;;;0.17;0.17;;;;;;;-139.38;100.00;63230.50;5063257;28;20221;-75
2021/06/06 00:50:10;;;;;;;0.67;0.53;;;;;;;-139.38;100.00;63230.50;5067425;28;20673;-75
2021/06/06 00:53:37;;;;;;;0.10;0.10;;;;;;;-139.38;100.00;63230.50;5074735;28;20216;-74
2021/06/06 00:57:05;;;;;;;0.10;0.10;;;;;;;-139.38;100.00;63230.50;5066937;28;20236;-74
2021/06/06 01:00:33;;;;;;;0.10;0.10;;;;;;;-139.38;100.00;63230.50;5072257;28;20243;-74
2021/06/06 01:03:59;;;;;;;0.10;0.10;;;;;;;-139.38;100.00;63230.50;5068159;28;20201;-74
2021/06/06 01:07:27;;;;;;;0.10;0.10;;;;;;;-139.38;100.00;63230.50;5065894;28;20243;-74
2021/06/06 01:10:53;;;;;;;0.10;0.10;;;;;;;-139.38;100.00;63230.50;5071773;28;20226;-74
2021/06/06 01:14:22;;;;;;;0.10;0.10;;;;;;;-139.38;100.00;63230.50;5066089;28;20258;-74
2021/06/06 01:17:53;;;;;;;0.10;0.10;;;;;;;-139.38;100.00;63230.50;5062476;28;20221;-74
2021/06/06 01:21:25;;;;;;;0.13;0.13;;;;;;;-139.38;100.00;63230.50;5058982;28;20206;-74
2021/06/06 01:25:11;;;;;;;0.10;0.10;;;;;;;-139.38;100.00;63230.50;5065378;28;20225;-74
2021/06/06 01:28:39;;;;;;;0.10;0.10;;;;;;;-139.38;100.00;63230.50;5064193;28;20641;-74
2021/06/06 01:32:07;;;;;;;0.10;0.10;;;;;;;-139.38;100.00;63230.50;5065674;28;20201;-74
2021/06/06 01:35:34;;;;;;;0.10;0.10;;;;;;;-139.38;100.00;63230.50;5055664;28;20219;-74
2021/06/06 01:39:04;;;;;;;0.10;0.10;;;;;;;-139.38;100.00;63230.50;5072379;28;20205;-74
2021/06/06 01:42:34;;;;;;;0.10;0.10;;;;;;;-139.38;100.00;63230.50;5060616;28;20201;-74
2021/06/06 01:46:04;;;;;;;0.10;0.10;;;;;;;-139.38;100.00;63230.50;5071548;28;20226;-74
2021/06/06 01:49:30;;;;;;;0.10;0.10;;;;;;;-139.38;100.00;63230.50;5068695;28;20205;-74
2021/06/06 01:52:57;;;;;;;0.10;0.10;;;;;;;-139.38;100.00;63230.50;5069099;28;20686;-74
2021/06/06 01:56:25;;;;;;;0.10;0.10;;;;;;;-139.38;100.00;63230.50;5071617;28;20214;-74
2021/06/06 01:59:55;;;;;;;0.17;0.17;;;;;;;-139.38;100.00;63230.50;5070105;28;20562;-74
2021/06/06 02:03:20;;;;;;;0.10;0.10;;;;;;;-139.38;100.00;63230.50;5071378;28;20291;-74
2021/06/06 02:06:48;;;;;;;0.10;0.10;;;;;;;-139.38;100.00;63230.50;5069746;28;20259;-74
2021/06/06 02:10:19;;;;;;;0.10;0.10;;;;;;;-139.38;100.00;63230.50;5066059;28;20207;-74
2021/06/06 02:13:47;;;;;;;0.10;0.10;;;;;;;-139.38;100.00;63230.50;5066145;28;20262;-74
2021/06/06 02:17:19;;;;;;;0.10;0.10;;;;;;;-139.38;100.00;63230.50;5069474;28;20220;-74
2021/06/06 02:20:47;;;;;;;0.10;0.10;;;;;;;-139.38;100.00;63230.50;5066648;28;20205;-74
2021/06/06 02:24:13;;;;;;;0.10;0.10;;;;;;;-139.38;100.00;63230.50;5062797;28;20221;-74
2021/06/06 02:27:46;;;;;;;0.20;0.20;;;;;;;-139.38;100.00;63230.50;5064808;28;20229;-74
2021/06/06 02:31:17;;;;;;;0.10;0.10;;;;;;;-139.38;100.00;63230.50;5061434;28;20590;-74
2021/06/06 02:34:46;;;;;;;0.10;0.10;;;;;;;-139.38;100.00;63230.50;5068006;28;20206;-74
2021/06/06 02:38:15;;;;;;;0.10;0.10;;;;;;;-139.38;100.00;63230.50;5063394;28;20201;-74
2021/06/06 02:41:43;;;;;;;0.10;0.10;;;;;;;-139.38;100.00;63230.50;5060341;28;20210;-74
2021/06/06 02:45:12;;;;;;;0.10;0.10;;;;;;;-139.38;100.00;63230.50;5071417;28;20201;-74
2021/06/06 02:48:39;;;;;;;0.10;0.10;;;;;;;-139.38;100.00;63230.50;5071874;28;20212;-73
2021/06/06 02:52:07;;;;;;;0.10;0.10;;;;;;;-139.38;100.00;63230.50;5062491;28;20581;-74
2021/06/06 02:55:38;;;;;;;0.10;0.10;;;;;;;-139.38;100.00;63230.50;5062600;28;20247;-74
2021/06/06 02:59:07;;;;;;;0.10;0.10;;;;;;;-139.38;100.00;63230.50;5058546;28;20225;-74
2021/06/06 03:02:35;;;;;;;0.10;0.10;;;;;;;-139.38;100.00;63230.50;5062959;28;20206;-73
2021/06/06 03:06:05;;;;;;;0.10;0.10;;;;;;;-139.38;100.00;63230.50;5059825;28;20274;-74
2021/06/06 03:09:30;;;;;;;0.10;0.10;;;;;;;-139.38;100.00;63230.50;5053433;28;20213;-72
2021/06/06 03:12:59;;;;;;;0.10;0.10;;;;;;;-139.38;100.00;63230.50;5069434;28;20544;-74
2021/06/06 03:16:27;;;;;;;0.10;0.10;;;;;;;-139.38;100.00;63230.50;5065510;28;20217;-74
2021/06/06 03:19:54;;;;;;;0.20;0.20;;;;;;;-139.38;100.00;63230.50;5068283;28;20653;-71
2021/06/06 03:23:24;;;;;;;0.10;0.10;;;;;;;-139.38;100.00;63230.50;5064805;28;20658;-73
2021/06/06 03:26:53;;;;;;;0.10;0.10;;;;;;;-139.38;100.00;63230.50;5071831;28;20225;-72
2021/06/06 03:30:27;;;;;;;0.10;0.10;;;;;;;-139.38;100.00;63230.50;5069234;28;20205;-74
2021/06/06 03:33:54;;;;;;;0.10;0.10;;;;;;;-139.38;100.00;63230.50;5068260;28;20262;-74
2021/06/06 03:37:23;;;;;;;0.10;0.10;;;;;;;-139.38;100.00;63230.50;5063016;28;20398;-74
2021/06/06 03:40:50;;;;;;;0.10;0.10;;;;;;;-139.38;100.00;63230.50;5068524;28;20215;-74
2021/06/06 03:44:16;;;;;;;0.10;0.10;;;;;;;-139.38;100.00;63230.50;5068757;28;20854;-74
2021/06/06 03:47:41;;;;;;;0.10;0.10;;;;;;;-139.38;100.00;63230.50;5065030;28;20228;-74
2021/06/06 03:51:09;;;;;;;0.10;0.10;;;;;;;-139.38;100.00;63230.50;5060799;28;20263;-74
2021/06/06 03:54:36;;;;;;;0.10;0.10;;;;;;;-139.38;100.00;63230.50;5065072;28;20213;-74
2021/06/06 03:58:02;;;;;;;0.10;0.10;;;;;;;-139.38;100.00;63230.50;5064229;28;20197;-74
2021/06/06 04:01:29;;;;;;;0.10;0.10;;;;;;;-139.38;100.00;63230.50;5068517;28;20216;-74
2021/06/06 04:04:54;;;;;;;0.10;0.10;;;;;;;-139.38;100.00;63230.50;5069866;28;20205;-74
2021/06/06 04:08:20;;;;;;;0.10;0.10;;;;;;;-139.38;100.00;63230.50;5064597;28;20201;-73
2021/06/06 04:11:46;;;;;;;0.23;0.23;;;;;;;-139.38;100.00;63230.50;5066095;28;20204;-73
2021/06/06 04:15:12;;;;;;;0.10;0.10;;;;;;;-139.38;100.00;63230.50;5063034;28;20273;-73
2021/06/06 04:18:38;;;;;;;0.20;0.20;;;;;;;-139.38;100.00;63230.50;5070679;28;20205;-73
2021/06/06 04:22:04;;;;;;;0.10;0.10;;;;;;;-139.38;100.00;63230.50;5055671;28;20201;-73
2021/06/06 04:25:30;;;;;;;0.10;0.10;;;;;;;-139.38;100.00;63230.50;5052990;28;20212;-73
2021/06/06 04:28:57;;;;;;;0.10;0.10;;;;;;;-139.38;100.00;63230.50;5062051;28;20206;-73
2021/06/06 04:32:24;;;;;;;0.10;0.10;;;;;;;-139.38;100.00;63230.50;5064356;28;20205;-73
2021/06/06 04:35:50;;;;;;;0.10;0.10;;;;;;;-139.38;100.00;63230.50;5069884;28;20215;-73
2021/06/06 04:39:18;;;;;;;0.10;0.10;;;;;;;-139.38;100.00;63230.50;5066001;28;20205;-73
2021/06/06 04:42:43;;;;;;;0.10;0.10;;;;;;;-139.38;100.00;63230.50;5066070;28;20197;-73
2021/06/06 04:46:11;;;;;;;0.10;0.10;;;;;;;-139.38;100.00;63230.50;5066732;28;20312;-73
2021/06/06 04:49:38;;;;;;;0.10;0.10;;;;;;;-139.38;100.00;63230.50;5070623;28;20207;-73
2021/06/06 04:53:04;;;;;;;0.10;0.10;;;;;;;-139.38;100.00;63230.50;5067003;28;20204;-73
2021/06/06 04:56:29;;;;;;;0.10;0.10;;;;;;;-139.38;100.00;63230.50;5067078;28;20222;-73
2021/06/06 04:59:55;;;;;;;0.10;0.10;;;;;;;-139.38;100.00;63230.50;5066881;28;20646;-72
2021/06/06 05:03:22;;;;;;;0.10;0.10;;;;;;;-139.38;100.00;63230.50;5066453;28;20202;-73
2021/06/06 05:06:48;;;;;;;0.10;0.10;;;;;;;-139.38;100.00;63230.50;5066635;28;20274;-73
2021/06/06 05:10:13;;;;;;;0.10;0.10;;;;;;;-139.38;100.00;63230.50;5063259;28;20943;-73
2021/06/06 05:13:39;;;;;;;0.10;0.10;;;;;;;-139.38;100.00;63230.50;5059500;28;20674;-73
2021/06/06 05:17:05;;;;;;;0.10;0.10;;;;;;;-139.38;100.00;63230.50;5068994;28;20217;-72
2021/06/06 05:20:32;;;;;;;0.10;0.10;;;;;;;-139.38;100.00;63230.50;5064436;28;20256;-73
2021/06/06 05:24:00;;;;;;;0.10;0.10;;;;;;;-139.38;100.00;63230.50;5067339;28;20259;-73
2021/06/06 05:27:25;;;;;;;0.10;0.10;;;;;;;-139.38;100.00;63230.50;5059566;28;20328;-73
2021/06/06 05:30:50;;;;;;;0.17;0.17;;;;;;;-139.38;100.00;63230.50;5054679;28;20202;-72
2021/06/06 05:34:16;;;;;;;0.10;0.10;;;;;;;-139.38;100.00;63230.50;5070007;28;20205;-72
2021/06/06 05:37:43;;;;;;;0.10;0.10;;;;;;;-139.38;100.00;63230.50;5068354;28;20621;-73
2021/06/06 05:41:09;;;;;;;0.10;0.10;;;;;;;-139.38;100.00;63230.50;5071680;28;20209;-73
2021/06/06 05:44:35;;;;;;;0.10;0.10;;;;;;;-139.38;100.00;63230.50;5067678;28;20208;-73
2021/06/06 05:48:02;;;;;;;0.10;0.10;;;;;;;-139.38;100.00;63230.50;5071338;28;20234;-73
2021/06/06 05:51:28;;;;;;;0.10;0.10;;;;;;;-139.38;100.00;63230.50;5069408;28;20673;-72
2021/06/06 05:54:55;;;;;;;0.10;0.10;;;;;;;-139.38;100.00;63230.50;5070771;28;20208;-73
2021/06/06 05:58:20;;;;;;;0.10;0.10;;;;;;;-139.38;100.00;63230.50;5065432;28;20224;-72
2021/06/06 06:01:46;;;;;;;0.10;0.10;;;;;;;-139.38;100.00;63230.50;5072631;28;20311;-73
2021/06/06 06:05:12;;;;;;;0.10;0.10;;;;;;;-139.38;100.00;63230.50;5061730;28;20206;-74
2021/06/06 06:08:38;;;;;;;0.20;0.20;;;;;;;-139.38;100.00;63230.50;5064348;28;21798;-73
2021/06/06 06:12:06;;;;;;;0.10;0.10;;;;;;;-139.38;100.00;63230.50;5062080;28;20208;-78
2021/06/06 06:15:31;;;;;;;0.10;0.10;;;;;;;-139.38;100.00;63230.50;5069136;28;20289;-73
2021/06/06 06:18:57;;;;;;;0.10;0.10;;;;;;;-139.38;100.00;63230.50;5067083;28;20249;-72
2021/06/06 06:22:23;;;;;;;0.50;0.50;;;;;;;-139.38;100.00;63230.50;5070871;28;20198;-74
2021/06/06 06:25:49;;;;;;;0.10;0.10;;;;;;;-139.38;100.00;63230.50;5064238;28;20205;-72
2021/06/06 06:29:16;;;;;;;0.20;0.20;;;;;;;-139.38;100.00;63230.50;5057752;28;20226;-75
2021/06/06 06:32:41;;;;;;;0.10;0.10;;;;;;;-139.38;100.00;63230.50;5063350;28;20218;-73
2021/06/06 06:36:07;;;;;;;0.20;0.20;;;;;;;-139.38;100.00;63230.50;5061394;28;20229;-74
2021/06/06 06:39:33;;;;;;;0.10;0.10;;;;;;;-139.38;100.00;63230.50;5066268;28;20208;-74
2021/06/06 06:42:58;;;;;;;0.10;0.10;;;;;;;-139.38;100.00;63230.50;5063595;28;20674;-79
2021/06/06 06:46:27;;;;;;;0.10;0.10;;;;;;;-139.38;100.00;63230.50;5068078;28;20251;-80
2021/06/06 06:49:53;;;;;;;0.10;0.10;;;;;;;-139.38;100.00;63230.50;5065682;28;20296;-82
2021/06/06 06:53:18;;;;;;;0.17;0.17;;;;;;;-139.38;100.00;63230.50;5069196;28;20221;-80
2021/06/06 06:56:44;;;;;;;0.10;0.10;;;;;;;-139.38;100.00;63230.50;5066295;28;20237;-78
2021/06/06 07:00:11;;;;;;;0.10;0.10;;;;;;;-139.38;100.00;63230.50;5058101;28;20198;-78
2021/06/06 07:03:37;;;;;;;1.23;1.13;;;;;;;-139.38;100.00;63230.50;5070883;28;20468;-79
2021/06/06 07:07:04;;;;;;;0.10;0.10;;;;;;;-139.38;100.00;63230.50;5077316;28;20285;-81
2021/06/06 07:10:30;;;;;;;0.10;0.10;;;;;;;-139.38;100.00;63230.50;5069903;28;20677;-76
2021/06/06 07:13:56;;;;;;;0.10;0.10;;;;;;;-139.38;100.00;63230.50;5070095;28;20201;-78
2021/06/06 07:17:21;;;;;;;0.10;0.10;;;;;;;-139.38;100.00;63230.50;5061635;28;20222;-78
2021/06/06 07:20:49;;;;;;;0.10;0.10;;;;;;;-139.38;100.00;63230.50;5059055;28;20450;-77
2021/06/06 07:24:15;;;;;;;0.10;0.10;;;;;;;-139.38;100.00;63230.50;5067283;28;20574;-77
2021/06/06 07:27:43;;;;;;;0.10;0.10;;;;;;;-139.38;100.00;63230.50;5067906;28;20699;-85
2021/06/06 07:31:10;;;;;;;0.10;0.10;;;;;;;-139.38;100.00;63230.50;5077512;28;20201;-79
2021/06/06 07:34:38;;;;;;;0.10;0.10;;;;;;;-139.38;100.00;63230.50;5067624;28;20217;-78
2021/06/06 07:38:06;;;;;;;0.10;0.10;;;;;;;-139.38;100.00;63230.50;5065665;28;20204;-79
2021/06/06 07:41:34;;;;;;;0.10;0.10;;;;;;;-139.38;100.00;63230.50;5069531;28;20208;-80
2021/06/06 07:45:00;;;;;;;0.10;0.10;;;;;;;-139.38;100.00;63230.50;5071914;28;20227;-79
2021/06/06 07:48:25;;;;;;;0.10;0.10;;;;;;;-139.38;100.00;63230.50;5070060;28;20225;-83
2021/06/06 07:51:51;;;;;;;0.10;0.10;;;;;;;-139.38;100.00;63230.50;5064516;28;20226;-84
2021/06/06 07:55:18;;;;;;;0.13;0.13;;;;;;;-139.38;100.00;63230.50;5063352;28;20210;-79
2021/06/06 07:58:44;;;;;;;0.10;0.10;;;;;;;-139.38;100.00;63230.50;5074452;28;20362;-81
2021/06/06 08:02:10;;;;;;;0.20;0.20;;;;;;;-139.38;100.00;63230.50;5073866;28;20671;-83
2021/06/06 08:05:36;;;;;;;0.10;0.10;;;;;;;-139.38;100.00;63230.50;5070909;28;20207;-78
2021/06/06 08:09:01;;;;;;;0.10;0.10;;;;;;;-139.38;100.00;63230.50;5062708;28;20225;-77
2021/06/06 08:12:28;;;;;;;0.10;0.10;;;;;;;-139.38;100.00;63230.50;5066694;28;20208;-77
2021/06/06 08:15:54;;;;;;;0.10;0.10;;;;;;;-139.38;100.00;63230.50;5069133;28;20258;-81
2021/06/06 08:19:22;;;;;;;0.10;0.10;;;;;;;-139.38;100.00;63230.50;5070315;28;20198;-78
2021/06/06 08:22:47;;;;;;;0.10;0.10;;;;;;;-139.38;100.00;63230.50;5074235;28;20398;-87
2021/06/06 08:26:14;;;;;;;0.10;0.10;;;;;;;-139.38;100.00;63230.50;5065634;28;20611;-80
2021/06/06 08:29:42;;;;;;;0.20;0.20;;;;;;;-139.38;100.00;63230.50;5075673;28;20713;-84
2021/06/06 08:33:07;;;;;;;0.20;0.20;;;;;;;-139.38;100.00;63230.50;5074443;28;20261;-78
2021/06/06 08:36:35;;;;;;;0.10;0.10;;;;;;;-139.38;100.00;63230.50;5070445;28;20939;-77
2021/06/06 08:40:00;;;;;;;0.10;0.10;;;;;;;-139.38;100.00;63230.50;5066839;28;20291;-79
2021/06/06 08:43:30;;;;;;;0.10;0.10;;;;;;;-139.38;100.00;63230.50;5070980;28;20206;-76
2021/06/06 08:46:59;;;;;;;0.10;0.10;;;;;;;-139.38;100.00;63230.50;5065844;28;20241;-76
2021/06/06 08:50:27;;;;;;;0.10;0.10;;;;;;;-139.38;100.00;63230.50;5063662;28;20213;-75
2021/06/06 08:53:58;;;;;;;0.10;0.10;;;;;;;-139.38;100.00;63230.50;5059527;28;20200;-77
2021/06/06 08:57:25;;;;;;;0.10;0.10;;;;;;;-139.38;100.00;63230.50;5061718;28;20233;-75
2021/06/06 09:00:55;;;;;;;0.10;0.10;;;;;;;-139.38;100.00;63230.50;5056636;28;20681;-73
2021/06/06 09:04:24;;;;;;;0.10;0.10;;;;;;;-139.38;100.00;63230.50;5065125;28;20201;-75
2021/06/06 09:07:51;;;;;;;0.10;0.10;;;;;;;-139.38;100.00;63230.50;5064407;28;20312;-79
2021/06/06 09:11:18;;;;;;;0.10;0.10;;;;;;;-139.38;100.00;63230.50;5061835;28;20211;-74
2021/06/06 09:14:44;;;;;;;0.20;0.20;;;;;;;-139.38;100.00;63230.50;5065751;28;20216;-76
2021/06/06 09:18:19;;;;;;;0.10;0.10;;;;;;;-139.38;100.00;63230.50;5060215;28;20210;-73
2021/06/06 09:21:48;;;;;;;0.10;0.10;;;;;;;-139.38;100.00;63230.50;5072749;28;20206;-77
2021/06/06 09:25:16;;;;;;;0.20;0.20;;;;;;;-139.38;100.00;63230.50;5066797;28;20235;-80
2021/06/06 09:28:42;;;;;;;0.10;0.10;;;;;;;-139.38;100.00;63230.50;5067046;28;20739;-78
2021/06/06 09:32:11;;;;;;;0.10;0.10;;;;;;;-139.38;100.00;63230.50;5070207;28;20252;-87
2021/06/06 09:35:38;;;;;;;1.17;1.17;;;;;;;-139.38;100.00;63230.50;5066957;28;20237;-86
2021/06/06 09:39:18;;;;;;;0.10;0.10;;;;;;;-139.38;100.00;63230.50;5071487;28;20647;-82
2021/06/06 09:42:47;;;;;;;0.10;0.10;;;;;;;-139.38;100.00;63230.50;5063085;28;20249;-84
2021/06/06 09:46:19;;;;;;;0.10;0.10;;;;;;;-139.38;100.00;63230.50;5061499;28;20222;-80
2021/06/06 09:49:46;;;;;;;0.10;0.10;;;;;;;-139.38;100.00;63230.50;5065486;28;20312;-88
2021/06/06 09:53:16;;;;;;;0.10;0.10;;;;;;;-139.38;100.00;63230.50;5065661;28;20902;-86
2021/06/06 09:56:42;;;;;;;0.10;0.10;;;;;;;-139.38;100.00;63230.50;5063562;28;20229;-79
2021/06/06 10:00:11;;;;;;;0.10;0.10;;;;;;;-139.38;100.00;63230.50;5067700;28;20195;-82
2021/06/06 10:03:40;;;;;;;0.10;0.10;;;;;;;-139.38;100.00;63230.50;5074280;28;20202;-79
2021/06/06 10:07:14;;;;;;;0.83;0.83;;;;;;;-139.38;100.00;63230.50;5068101;28;20222;-75
2021/06/06 10:10:50;;;;;;;0.10;0.10;;;;;;;-139.38;100.00;63230.50;5063700;28;20226;-80
2021/06/06 10:14:17;;;;;;;0.10;0.10;;;;;;;-139.38;100.00;63230.50;5067046;28;20203;-77
2021/06/06 10:17:45;;;;;;;0.20;0.20;;;;;;;-139.38;100.00;63230.50;5071246;28;20218;-77
2021/06/06 10:21:16;;;;;;;0.10;0.10;;;;;;;-139.38;100.00;63230.50;5077218;28;20563;-84
2021/06/06 10:24:45;;;;;;;0.10;0.10;;;;;;;-139.38;100.00;63230.50;5072687;28;20281;-75
2021/06/06 10:28:15;;;;;;;0.10;0.10;;;;;;;-139.38;100.00;63230.50;5075243;28;20205;-81
2021/06/06 10:31:45;;;;;;;0.10;0.10;;;;;;;-139.38;100.00;63230.50;5074019;28;20214;-78
2021/06/06 10:35:18;;;;;;;0.10;0.10;;;;;;;-139.38;100.00;63230.50;5062033;28;20200;-79
2021/06/06 10:38:46;;;;;;;0.87;0.87;;;;;;;-139.38;100.00;63230.50;5069013;28;20199;-79
2021/06/06 10:42:17;;;;;;;0.10;0.10;;;;;;;-139.38;100.00;63230.50;5061391;28;20612;-78
2021/06/06 10:45:53;;;;;;;0.20;0.20;;;;;;;-139.38;100.00;63230.50;5060710;28;20201;-79
2021/06/06 10:49:23;;;;;;;0.10;0.10;;;;;;;-139.38;100.00;63230.50;5066109;28;20288;-78
2021/06/06 10:52:50;;;;;;;0.10;0.10;;;;;;;-139.38;100.00;63230.50;5067996;28;20214;-77
2021/06/06 10:56:40;;;;;;;0.10;0.10;;;;;;;-139.38;100.00;63230.50;5069435;28;20246;-83
2021/06/06 11:00:10;;;;;;;0.10;0.10;;;;;;;-139.38;100.00;63230.50;5084802;28;20200;-79
2021/06/06 11:03:37;;;;;;;0.10;0.10;;;;;;;-139.38;100.00;63230.50;5074488;28;20209;-81
2021/06/06 11:07:07;;;;;;;0.10;0.10;;;;;;;-139.38;100.00;63230.50;5069730;28;20232;-78
2021/06/06 11:10:34;;;;;;;0.40;0.40;;;;;;;-139.38;100.00;63230.50;5072111;28;20227;-79
2021/06/06 11:14:16;;;;;;;0.13;0.13;;;;;;;-139.38;100.00;63230.50;5067155;28;20202;-75
2021/06/06 11:17:44;;;;;;;0.10;0.10;;;;;;;-139.38;100.00;63230.50;5062468;28;20311;-77
2021/06/06 11:21:11;;;;;;;0.10;0.10;;;;;;;-139.38;100.00;63230.50;5063917;28;20206;-74
2021/06/06 11:24:45;;;;;;;0.10;0.10;;;;;;;-139.38;100.00;63230.50;5063672;28;20836;-76
2021/06/06 11:28:26;;;;;;;0.20;0.20;;;;;;;-139.38;100.00;63230.50;5064726;28;20217;-77
2021/06/06 11:32:00;;;;;;;0.10;0.10;;;;;;;-139.38;100.00;63230.50;5071068;28;20199;-80
2021/06/06 11:35:29;;;;;;;0.70;0.70;;;;;;;-139.38;100.00;63230.50;5066338;28;20689;-75
2021/06/06 11:38:55;;;;;;;0.20;0.20;;;;;;;-139.38;100.00;63230.50;5065751;28;20206;-78
2021/06/06 11:42:35;;;;;;;0.13;0.13;;;;;;;-139.38;100.00;63230.50;5064080;28;20214;-77
2021/06/06 11:46:11;;;;;;;0.10;0.10;;;;;;;-139.38;100.00;63230.50;5071993;28;20706;-80
2021/06/06 11:49:40;;;;;;;20.07;10.97;;;;;;;-139.38;100.00;63230.50;5069698;28;20213;-78
2021/06/06 11:53:13;;;;;;;80.67;35.67;;;;;;;-139.38;100.00;63230.50;5066517;28;20198;-77
2021/06/06 11:56:40;;;;;;;68.30;33.57;;;;;;;-139.38;100.00;63230.50;5071611;28;20311;-78
2021/06/06 12:00:15;;;;;;;76.37;34.17;;;;;;;-139.38;100.00;63230.50;5067124;28;20203;-84
2021/06/06 12:03:41;;;;;;;67.90;33.83;;;;;;;-139.38;100.00;63230.50;5061232;28;20241;-77
2021/06/06 12:07:10;;;;;;;68.00;32.70;;;;;;;-139.38;100.00;63230.50;5060567;28;20711;-78
2021/06/06 12:10:38;;;;;;;56.77;30.20;;;;;;;-139.38;100.00;63230.50;5066566;28;20740;-77
2021/06/06 12:14:08;;;;;;;50.67;28.47;;;;;;;-139.38;100.00;63230.50;5058437;28;20211;-79
2021/06/06 12:17:37;;;;;;;48.17;26.37;;;;;;;-139.38;100.00;63230.50;5066353;28;20252;-77
2021/06/06 12:21:05;;;;;;;52.77;26.80;;;;;;;-139.38;100.00;63230.50;5073017;28;20221;-78
2021/06/06 12:24:32;;;;;;;48.97;26.07;;;;;;;-139.38;100.00;63230.50;5062029;28;20205;-83
2021/06/06 12:28:04;;;;;;;51.80;27.43;;;;;;;-139.38;100.00;63230.50;5059656;28;20226;-80
2021/06/06 12:31:32;;;;;;;43.73;23.77;;;;;;;-139.38;100.00;63230.50;5064930;28;20304;-77
2021/06/06 12:35:13;;;;;;;40.77;23.73;;;;;;;-139.38;100.00;63230.50;5065556;28;20206;-82
2021/06/06 12:38:39;;;;;;;44.87;24.63;;;;;;;-139.38;100.00;63230.50;5060906;28;20204;-77
2021/06/06 12:42:07;;;;;;;39.60;22.53;;;;;;;-139.38;100.00;63230.50;5065750;28;20278;-79
2021/06/06 12:45:42;;;;;;;42.33;25.00;;;;;;;-139.38;100.00;63230.50;5056405;28;20215;-77
2021/06/06 12:49:12;;;;;;;40.60;22.53;;;;;;;-139.38;100.00;63230.50;5074108;28;20212;-79
2021/06/06 12:52:41;;;;;;;42.57;23.60;;;;;;;-139.38;100.00;63230.50;5074513;28;20203;-82
2021/06/06 12:56:13;;;;;;;43.57;23.97;;;;;;;-139.38;100.00;63230.50;5068823;28;20837;-80
2021/06/06 12:59:39;;;;;;;42.40;23.40;;;;;;;-139.38;100.00;63230.50;5071627;28;20210;-80
2021/06/06 13:03:25;;;;;;;38.00;22.23;;;;;;;-139.38;100.00;63230.50;5077560;28;20212;-80
2021/06/06 13:06:53;;;;;;;40.30;24.53;;;;;;;-139.38;100.00;63230.50;5070738;28;20223;-78
2021/06/06 13:10:26;;;;;;;43.10;24.60;;;;;;;-139.38;100.00;63230.50;5071463;28;20285;-80
2021/06/06 13:13:52;;;;;;;43.77;25.23;;;;;;;-139.38;100.00;63230.50;5077713;28;20213;-79
2021/06/06 13:17:24;;;;;;;46.87;26.93;;;;;;;-139.38;100.00;63230.50;5074916;28;20231;-81
2021/06/06 13:20:51;;;;;;;50.07;26.97;;;;;;;-139.38;100.00;63230.50;5065630;28;20199;-79
2021/06/06 13:24:27;;;;;;;54.13;28.73;;;;;;;-139.38;100.00;63230.50;5062166;28;20210;-78
2021/06/06 13:27:54;;;;;;;58.90;30.27;;;;;;;-139.38;100.00;63230.50;5066460;28;20249;-75
2021/06/06 13:31:26;;;;;;;56.37;30.33;;;;;;;-139.38;100.00;63230.50;5059619;28;20231;-76
2021/06/06 13:34:54;;;;;;;65.70;32.17;;;;;;;-139.38;100.00;63230.50;5060310;28;20198;-76
2021/06/06 13:38:20;;;;;;;61.77;32.10;;;;;;;-139.38;100.00;63230.50;5074094;28;20404;-76
2021/06/06 13:41:47;;;;;;;60.40;30.97;;;;;;;-139.38;100.00;63230.50;5063587;28;20199;-76
2021/06/06 13:45:13;;;;;;;65.80;33.33;;;;;;;-139.38;100.00;63230.50;5066597;28;20214;-76
2021/06/06 13:48:39;;;;;;;60.27;33.03;;;;;;;-139.38;100.00;63230.50;5069330;28;20212;-76
2021/06/06 13:52:06;;;;;;;63.70;33.60;;;;;;;-139.38;100.00;63230.50;5070873;28;20267;-76
2021/06/06 13:55:32;;;;;;;60.87;34.00;;;;;;;-139.38;100.00;63230.50;5059995;28;20303;-77
2021/06/06 13:58:59;;;;;;;64.33;34.67;;;;;;;-139.38;100.00;63230.50;5075323;28;20249;-77
2021/06/06 14:02:25;;;;;;;62.23;33.10;;;;;;;-139.38;100.00;63230.50;5072481;28;20202;-77
2021/06/06 14:05:50;;;;;;;68.17;35.33;;;;;;;-139.38;100.00;63230.50;5066800;28;20248;-76
2021/06/06 14:09:17;;;;;;;62.47;33.80;;;;;;;-139.38;100.00;63230.50;5065761;28;20734;-76
2021/06/06 14:12:45;;;;;;;58.77;32.33;;;;;;;-139.38;100.00;63230.50;5066004;28;20257;-77
2021/06/06 14:16:15;;;;;;;55.63;31.40;;;;;;;-139.38;100.00;63230.50;5064534;28;20219;-76
2021/06/06 14:19:40;;;;;;;54.93;31.00;;;;;;;-139.38;100.00;63230.50;5062382;28;20225;-77
2021/06/06 14:23:06;;;;;;;54.70;31.63;;;;;;;-139.38;100.00;63230.50;5059077;28;20285;-76
2021/06/06 14:26:34;;;;;;;53.93;30.73;;;;;;;-139.38;100.00;63230.50;5063793;28;20217;-76
2021/06/06 14:30:00;;;;;;;49.40;30.87;;;;;;;-139.38;100.00;63230.50;5059101;28;20201;-78
2021/06/06 14:33:30;;;;;;;59.93;32.87;;;;;;;-139.38;100.00;63230.50;5069648;28;20208;-77
2021/06/06 14:36:57;;;;;;;57.33;31.50;;;;;;;-139.38;100.00;63230.50;5066110;28;20235;-78
2021/06/06 14:40:24;;;;;;;53.37;29.67;;;;;;;-139.38;100.00;63230.50;5065777;28;20238;-82
2021/06/06 14:43:50;;;;;;;51.33;29.40;;;;;;;-139.38;100.00;63230.50;5070013;28;20209;-79
2021/06/06 14:47:15;;;;;;;46.57;28.90;;;;;;;-139.38;100.00;63230.50;5064608;28;20287;-76
2021/06/06 14:50:42;;;;;;;49.60;28.30;;;;;;;-139.38;100.00;63230.50;5065552;28;20209;-77
2021/06/06 14:54:09;;;;;;;48.70;29.23;;;;;;;-139.38;100.00;63230.50;5067867;28;20209;-79
2021/06/06 14:57:34;;;;;;;44.47;27.83;;;;;;;-139.38;100.00;63230.50;5068026;28;20213;-77
2021/06/06 15:01:01;;;;;;;46.63;27.27;;;;;;;-139.38;100.00;63230.50;5070387;28;20211;-77
2021/06/06 15:04:26;;;;;;;42.00;26.50;;;;;;;-139.38;100.00;63230.50;5057078;28;20206;-74
2021/06/06 15:07:53;;;;;;;42.47;26.03;;;;;;;-139.38;100.00;63230.50;5061871;28;20227;-74
2021/06/06 15:11:21;;;;;;;42.47;27.23;;;;;;;-139.38;100.00;63230.50;5062270;28;20278;-74
2021/06/06 15:14:48;;;;;;;41.07;24.83;;;;;;;-139.38;100.00;63230.50;5057301;28;20197;-77
2021/06/06 15:18:16;;;;;;;42.03;25.70;;;;;;;-139.38;100.00;63230.50;5065801;28;20212;-80
2021/06/06 15:21:42;;;;;;;43.17;25.50;;;;;;;-139.38;100.00;63230.50;5069091;28;20288;-76
2021/06/06 15:25:11;;;;;;;38.70;25.70;;;;;;;-139.38;100.00;63230.50;5070500;28;20239;-75
2021/06/06 15:28:37;;;;;;;38.30;25.70;;;;;;;-139.38;100.00;63230.50;5065624;28;20215;-76
2021/06/06 15:32:03;;;;;;;37.43;24.43;;;;;;;-139.38;100.00;63230.50;5067695;28;20238;-76
2021/06/06 15:35:29;;;;;;;36.27;24.93;;;;;;;-139.38;100.00;63230.50;5066472;28;20283;-80
2021/06/06 15:38:54;;;;;;;39.90;25.37;;;;;;;-139.38;100.00;63230.50;5064511;28;20581;-78